sensor_id;sensor_type;location;lat;lon;timestamp;temperature;humidity
18229;DHT22;9239;50.932;3.142;2023-02-05T00:01:22;8.50;99.90
18229;DHT22;9239;50.932;3.142;2023-02-05T00:03:49;8.40;99.90
18229;DHT22;9239;50.932;3.142;2023-02-05T00:06:16;8.40;99.90
18229;DHT22;9239;50.932;3.142;2023-02-05T00:08:43;8.40;99.90
18229;DHT22;9239;50.932;3.142;2023-02-05T00:11:09;8.40;99.90
18229;DHT22;9239;50.932;3.142;2023-02-05T00:13:38;8.30;99.90
18229;DHT22;9239;50.932;3.142;2023-02-05T00:16:11;8.20;99.90
18229;DHT22;9239;50.932;3.142;2023-02-05T00:18:39;8.10;99.90
18229;DHT22;9239;50.932;3.142;2023-02-05T00:21:06;8.00;99.90
18229;DHT22;9239;50.932;3.142;2023-02-05T00:23:33;7.90;99.90
18229;DHT22;9239;50.932;3.142;2023-02-05T00:26:01;7.80;99.90
18229;DHT22;9239;50.932;3.142;2023-02-05T00:28:29;7.70;99.90
18229;DHT22;9239;50.932;3.142;2023-02-05T00:30:56;7.60;99.90
18229;DHT22;9239;50.932;3.142;2023-02-05T00:33:24;7.50;99.90
18229;DHT22;9239;50.932;3.142;2023-02-05T00:35:52;7.50;99.90
18229;DHT22;9239;50.932;3.142;2023-02-05T00:38:18;7.30;99.90
18229;DHT22;9239;50.932;3.142;2023-02-05T00:40:45;7.30;99.90
18229;DHT22;9239;50.932;3.142;2023-02-05T00:43:14;7.30;99.90
18229;DHT22;9239;50.932;3.142;2023-02-05T00:45:42;7.20;99.90
18229;DHT22;9239;50.932;3.142;2023-02-05T00:48:09;7.30;99.90
18229;DHT22;9239;50.932;3.142;2023-02-05T00:50:37;7.30;99.90
18229;DHT22;9239;50.932;3.142;2023-02-05T00:53:05;7.40;99.90
18229;DHT22;9239;50.932;3.142;2023-02-05T00:55:32;7.50;99.90
18229;DHT22;9239;50.932;3.142;2023-02-05T00:57:59;7.50;99.90
18229;DHT22;9239;50.932;3.142;2023-02-05T01:00:26;7.60;99.90
18229;DHT22;9239;50.932;3.142;2023-02-05T01:02:54;7.60;99.90
18229;DHT22;9239;50.932;3.142;2023-02-05T01:05:21;7.70;99.90
18229;DHT22;9239;50.932;3.142;2023-02-05T01:07:49;7.70;99.90
18229;DHT22;9239;50.932;3.142;2023-02-05T01:10:16;7.70;99.90
18229;DHT22;9239;50.932;3.142;2023-02-05T01:12:43;7.70;99.90
18229;DHT22;9239;50.932;3.142;2023-02-05T01:15:12;7.80;99.90
18229;DHT22;9239;50.932;3.142;2023-02-05T01:17:39;7.70;99.90
18229;DHT22;9239;50.932;3.142;2023-02-05T01:20:11;7.70;99.90
18229;DHT22;9239;50.932;3.142;2023-02-05T01:22:39;7.70;99.90
18229;DHT22;9239;50.932;3.142;2023-02-05T01:25:08;7.70;99.90
18229;DHT22;9239;50.932;3.142;2023-02-05T01:27:35;7.70;99.90
18229;DHT22;9239;50.932;3.142;2023-02-05T01:30:04;7.70;99.90
18229;DHT22;9239;50.932;3.142;2023-02-05T01:32:31;7.70;99.90
18229;DHT22;9239;50.932;3.142;2023-02-05T01:34:58;7.70;99.90
18229;DHT22;9239;50.932;3.142;2023-02-05T01:37:25;7.80;99.90
18229;DHT22;9239;50.932;3.142;2023-02-05T01:39:52;7.80;99.90
18229;DHT22;9239;50.932;3.142;2023-02-05T01:42:22;7.70;99.90
18229;DHT22;9239;50.932;3.142;2023-02-05T01:47:57;7.80;99.90
18229;DHT22;9239;50.932;3.142;2023-02-05T01:50:28;7.70;99.90
18229;DHT22;9239;50.932;3.142;2023-02-05T01:52:59;7.80;99.90
18229;DHT22;9239;50.932;3.142;2023-02-05T01:55:27;7.80;99.90
18229;DHT22;9239;50.932;3.142;2023-02-05T01:57:57;7.70;99.90
18229;DHT22;9239;50.932;3.142;2023-02-05T02:00:26;7.70;99.90
18229;DHT22;9239;50.932;3.142;2023-02-05T02:02:53;7.80;99.90
18229;DHT22;9239;50.932;3.142;2023-02-05T02:05:20;7.70;99.90
18229;DHT22;9239;50.932;3.142;2023-02-05T02:07:47;7.70;99.90
18229;DHT22;9239;50.932;3.142;2023-02-05T02:10:14;7.70;99.90
18229;DHT22;9239;50.932;3.142;2023-02-05T02:12:45;7.70;99.90
18229;DHT22;9239;50.932;3.142;2023-02-05T02:15:16;7.70;99.90
18229;DHT22;9239;50.932;3.142;2023-02-05T02:17:46;7.70;99.90
18229;DHT22;9239;50.932;3.142;2023-02-05T02:20:16;7.60;99.90
18229;DHT22;9239;50.932;3.142;2023-02-05T02:23:08;7.50;99.90
18229;DHT22;9239;50.932;3.142;2023-02-05T02:25:52;7.50;99.90
18229;DHT22;9239;50.932;3.142;2023-02-05T02:28:27;7.40;99.90
18229;DHT22;9239;50.932;3.142;2023-02-05T02:30:59;7.40;99.90
18229;DHT22;9239;50.932;3.142;2023-02-05T02:33:33;7.40;99.90
18229;DHT22;9239;50.932;3.142;2023-02-05T02:36:07;7.40;99.90
18229;DHT22;9239;50.932;3.142;2023-02-05T02:38:38;7.40;99.90
18229;DHT22;9239;50.932;3.142;2023-02-05T02:41:10;7.40;99.90
18229;DHT22;9239;50.932;3.142;2023-02-05T02:43:45;7.50;99.90
18229;DHT22;9239;50.932;3.142;2023-02-05T02:46:19;7.50;99.90
18229;DHT22;9239;50.932;3.142;2023-02-05T02:48:50;7.40;99.90
18229;DHT22;9239;50.932;3.142;2023-02-05T02:51:19;7.40;99.90
18229;DHT22;9239;50.932;3.142;2023-02-05T02:53:50;7.40;99.90
18229;DHT22;9239;50.932;3.142;2023-02-05T02:56:19;7.40;99.90
18229;DHT22;9239;50.932;3.142;2023-02-05T02:58:50;7.40;99.90
18229;DHT22;9239;50.932;3.142;2023-02-05T03:01:21;7.40;99.90
18229;DHT22;9239;50.932;3.142;2023-02-05T03:03:51;7.40;99.90
18229;DHT22;9239;50.932;3.142;2023-02-05T03:06:20;7.40;99.90
18229;DHT22;9239;50.932;3.142;2023-02-05T03:08:51;7.50;99.90
18229;DHT22;9239;50.932;3.142;2023-02-05T03:11:20;7.40;99.90
18229;DHT22;9239;50.932;3.142;2023-02-05T03:13:48;7.50;99.90
18229;DHT22;9239;50.932;3.142;2023-02-05T03:16:16;7.50;99.90
18229;DHT22;9239;50.932;3.142;2023-02-05T03:18:44;7.50;99.90
18229;DHT22;9239;50.932;3.142;2023-02-05T03:21:15;7.50;99.90
18229;DHT22;9239;50.932;3.142;2023-02-05T03:23:43;7.50;99.90
18229;DHT22;9239;50.932;3.142;2023-02-05T03:26:24;7.50;99.90
18229;DHT22;9239;50.932;3.142;2023-02-05T03:28:53;7.50;99.90
18229;DHT22;9239;50.932;3.142;2023-02-05T03:31:23;7.50;99.90
18229;DHT22;9239;50.932;3.142;2023-02-05T03:34:00;7.50;99.90
18229;DHT22;9239;50.932;3.142;2023-02-05T03:36:39;7.50;99.90
18229;DHT22;9239;50.932;3.142;2023-02-05T03:39:18;7.60;99.90
18229;DHT22;9239;50.932;3.142;2023-02-05T03:41:52;7.60;99.90
18229;DHT22;9239;50.932;3.142;2023-02-05T03:44:47;7.60;99.90
18229;DHT22;9239;50.932;3.142;2023-02-05T03:47:31;7.50;99.90
18229;DHT22;9239;50.932;3.142;2023-02-05T03:50:09;7.60;99.90
18229;DHT22;9239;50.932;3.142;2023-02-05T03:52:42;7.60;99.90
18229;DHT22;9239;50.932;3.142;2023-02-05T03:55:13;7.60;99.90
18229;DHT22;9239;50.932;3.142;2023-02-05T03:57:44;7.60;99.90
18229;DHT22;9239;50.932;3.142;2023-02-05T04:00:16;7.60;99.90
18229;DHT22;9239;50.932;3.142;2023-02-05T04:02:44;7.60;99.90
18229;DHT22;9239;50.932;3.142;2023-02-05T04:05:11;7.70;99.90
18229;DHT22;9239;50.932;3.142;2023-02-05T04:07:38;7.70;99.90
18229;DHT22;9239;50.932;3.142;2023-02-05T04:10:06;7.70;99.90
18229;DHT22;9239;50.932;3.142;2023-02-05T04:12:32;7.70;99.90
18229;DHT22;9239;50.932;3.142;2023-02-05T04:14:59;7.70;99.90
18229;DHT22;9239;50.932;3.142;2023-02-05T04:17:29;7.70;99.90
18229;DHT22;9239;50.932;3.142;2023-02-05T04:19:56;7.70;99.90
18229;DHT22;9239;50.932;3.142;2023-02-05T04:22:22;7.60;99.90
18229;DHT22;9239;50.932;3.142;2023-02-05T04:24:49;7.60;99.90
18229;DHT22;9239;50.932;3.142;2023-02-05T04:27:16;7.60;99.90
18229;DHT22;9239;50.932;3.142;2023-02-05T04:29:43;7.60;99.90
18229;DHT22;9239;50.932;3.142;2023-02-05T04:32:10;7.60;99.90
18229;DHT22;9239;50.932;3.142;2023-02-05T04:34:38;7.60;99.90
18229;DHT22;9239;50.932;3.142;2023-02-05T04:37:05;7.60;99.90
18229;DHT22;9239;50.932;3.142;2023-02-05T04:39:32;7.60;99.90
18229;DHT22;9239;50.932;3.142;2023-02-05T04:41:59;7.50;99.90
18229;DHT22;9239;50.932;3.142;2023-02-05T04:44:26;7.50;99.90
18229;DHT22;9239;50.932;3.142;2023-02-05T04:46:53;7.50;99.90
18229;DHT22;9239;50.932;3.142;2023-02-05T04:49:20;7.60;99.90
18229;DHT22;9239;50.932;3.142;2023-02-05T04:51:48;7.60;99.90
18229;DHT22;9239;50.932;3.142;2023-02-05T04:54:15;7.60;99.90
18229;DHT22;9239;50.932;3.142;2023-02-05T04:56:42;7.70;99.90
18229;DHT22;9239;50.932;3.142;2023-02-05T04:59:09;7.70;99.90
18229;DHT22;9239;50.932;3.142;2023-02-05T05:01:36;7.80;99.90
18229;DHT22;9239;50.932;3.142;2023-02-05T05:04:03;7.80;99.90
18229;DHT22;9239;50.932;3.142;2023-02-05T05:06:29;7.90;99.90
18229;DHT22;9239;50.932;3.142;2023-02-05T05:08:58;8.00;99.90
18229;DHT22;9239;50.932;3.142;2023-02-05T05:11:25;8.00;99.90
18229;DHT22;9239;50.932;3.142;2023-02-05T05:14:01;8.00;99.90
18229;DHT22;9239;50.932;3.142;2023-02-05T05:16:27;8.00;99.90
18229;DHT22;9239;50.932;3.142;2023-02-05T05:18:56;7.90;99.90
18229;DHT22;9239;50.932;3.142;2023-02-05T05:21:23;7.90;99.90
18229;DHT22;9239;50.932;3.142;2023-02-05T05:23:50;7.80;99.90
18229;DHT22;9239;50.932;3.142;2023-02-05T05:26:18;7.80;99.90
18229;DHT22;9239;50.932;3.142;2023-02-05T05:28:45;7.80;99.90
18229;DHT22;9239;50.932;3.142;2023-02-05T05:31:14;7.70;99.90
18229;DHT22;9239;50.932;3.142;2023-02-05T05:33:44;7.70;99.90
18229;DHT22;9239;50.932;3.142;2023-02-05T05:36:11;7.60;99.90
18229;DHT22;9239;50.932;3.142;2023-02-05T05:38:38;7.60;99.90
18229;DHT22;9239;50.932;3.142;2023-02-05T05:41:05;7.60;99.90
18229;DHT22;9239;50.932;3.142;2023-02-05T05:43:53;7.70;99.90
18229;DHT22;9239;50.932;3.142;2023-02-05T05:46:22;7.60;99.90
18229;DHT22;9239;50.932;3.142;2023-02-05T05:48:49;7.70;99.90
18229;DHT22;9239;50.932;3.142;2023-02-05T05:51:17;7.70;99.90
18229;DHT22;9239;50.932;3.142;2023-02-05T05:53:44;7.70;99.90
18229;DHT22;9239;50.932;3.142;2023-02-05T05:56:12;7.70;99.90
18229;DHT22;9239;50.932;3.142;2023-02-05T05:58:39;7.70;99.90
18229;DHT22;9239;50.932;3.142;2023-02-05T06:01:09;7.70;99.90
18229;DHT22;9239;50.932;3.142;2023-02-05T06:03:36;7.70;99.90
18229;DHT22;9239;50.932;3.142;2023-02-05T06:06:04;7.80;99.90
18229;DHT22;9239;50.932;3.142;2023-02-05T06:08:31;7.80;99.90
18229;DHT22;9239;50.932;3.142;2023-02-05T06:10:58;7.80;99.90
18229;DHT22;9239;50.932;3.142;2023-02-05T06:13:25;7.70;99.90
18229;DHT22;9239;50.932;3.142;2023-02-05T06:15:52;7.60;99.90
18229;DHT22;9239;50.932;3.142;2023-02-05T06:18:21;7.60;99.90
18229;DHT22;9239;50.932;3.142;2023-02-05T06:20:48;7.60;99.90
18229;DHT22;9239;50.932;3.142;2023-02-05T06:23:14;7.50;99.90
18229;DHT22;9239;50.932;3.142;2023-02-05T06:25:41;7.50;99.90
18229;DHT22;9239;50.932;3.142;2023-02-05T06:28:08;7.50;99.90
18229;DHT22;9239;50.932;3.142;2023-02-05T06:30:35;7.50;99.90
18229;DHT22;9239;50.932;3.142;2023-02-05T06:33:02;7.50;99.90
18229;DHT22;9239;50.932;3.142;2023-02-05T06:35:31;7.50;99.90
18229;DHT22;9239;50.932;3.142;2023-02-05T06:37:58;7.40;99.90
18229;DHT22;9239;50.932;3.142;2023-02-05T06:40:24;7.40;99.90
18229;DHT22;9239;50.932;3.142;2023-02-05T06:42:52;7.40;99.90
18229;DHT22;9239;50.932;3.142;2023-02-05T06:45:20;7.40;99.90
18229;DHT22;9239;50.932;3.142;2023-02-05T06:47:47;7.40;99.90
18229;DHT22;9239;50.932;3.142;2023-02-05T06:50:15;7.40;99.90
18229;DHT22;9239;50.932;3.142;2023-02-05T06:52:43;7.40;99.90
18229;DHT22;9239;50.932;3.142;2023-02-05T06:55:10;7.40;99.90
18229;DHT22;9239;50.932;3.142;2023-02-05T06:57:36;7.40;99.90
18229;DHT22;9239;50.932;3.142;2023-02-05T07:00:04;7.40;99.90
18229;DHT22;9239;50.932;3.142;2023-02-05T07:02:31;7.40;99.90
18229;DHT22;9239;50.932;3.142;2023-02-05T07:04:58;7.40;99.90
18229;DHT22;9239;50.932;3.142;2023-02-05T07:07:25;7.40;99.90
18229;DHT22;9239;50.932;3.142;2023-02-05T07:09:54;7.40;99.90
18229;DHT22;9239;50.932;3.142;2023-02-05T07:12:21;7.40;99.90
18229;DHT22;9239;50.932;3.142;2023-02-05T07:14:47;7.40;99.90
18229;DHT22;9239;50.932;3.142;2023-02-05T07:17:14;7.40;99.90
18229;DHT22;9239;50.932;3.142;2023-02-05T07:19:41;7.40;99.90
18229;DHT22;9239;50.932;3.142;2023-02-05T07:22:08;7.40;99.90
18229;DHT22;9239;50.932;3.142;2023-02-05T07:24:35;7.40;99.90
18229;DHT22;9239;50.932;3.142;2023-02-05T07:27:04;7.40;99.90
18229;DHT22;9239;50.932;3.142;2023-02-05T07:29:31;7.40;99.90
18229;DHT22;9239;50.932;3.142;2023-02-05T07:31:57;7.40;99.90
18229;DHT22;9239;50.932;3.142;2023-02-05T07:34:24;7.40;99.90
18229;DHT22;9239;50.932;3.142;2023-02-05T07:36:52;7.40;99.90
18229;DHT22;9239;50.932;3.142;2023-02-05T07:39:19;7.40;99.90
18229;DHT22;9239;50.932;3.142;2023-02-05T07:41:46;7.50;99.90
18229;DHT22;9239;50.932;3.142;2023-02-05T07:44:14;7.50;99.90
18229;DHT22;9239;50.932;3.142;2023-02-05T07:46:41;7.50;99.90
18229;DHT22;9239;50.932;3.142;2023-02-05T07:49:08;7.50;99.90
18229;DHT22;9239;50.932;3.142;2023-02-05T07:51:36;7.50;99.90
18229;DHT22;9239;50.932;3.142;2023-02-05T07:54:05;7.60;99.90
18229;DHT22;9239;50.932;3.142;2023-02-05T07:56:32;7.60;99.90
18229;DHT22;9239;50.932;3.142;2023-02-05T07:58:59;7.60;99.90
18229;DHT22;9239;50.932;3.142;2023-02-05T08:01:27;7.50;99.90
18229;DHT22;9239;50.932;3.142;2023-02-05T08:03:54;7.50;99.90
18229;DHT22;9239;50.932;3.142;2023-02-05T08:06:21;7.50;99.90
18229;DHT22;9239;50.932;3.142;2023-02-05T08:08:47;7.50;99.90
18229;DHT22;9239;50.932;3.142;2023-02-05T08:11:15;7.50;99.90
18229;DHT22;9239;50.932;3.142;2023-02-05T08:13:43;7.50;99.90
18229;DHT22;9239;50.932;3.142;2023-02-05T08:16:12;7.50;99.90
18229;DHT22;9239;50.932;3.142;2023-02-05T08:18:42;7.50;99.90
18229;DHT22;9239;50.932;3.142;2023-02-05T08:21:12;7.50;99.90
18229;DHT22;9239;50.932;3.142;2023-02-05T08:23:39;7.50;99.90
18229;DHT22;9239;50.932;3.142;2023-02-05T08:26:06;7.50;99.90
18229;DHT22;9239;50.932;3.142;2023-02-05T08:28:33;7.40;99.90
18229;DHT22;9239;50.932;3.142;2023-02-05T08:31:00;7.50;99.90
18229;DHT22;9239;50.932;3.142;2023-02-05T08:33:27;7.40;99.90
18229;DHT22;9239;50.932;3.142;2023-02-05T08:35:56;7.50;99.90
18229;DHT22;9239;50.932;3.142;2023-02-05T08:38:23;7.50;99.90
18229;DHT22;9239;50.932;3.142;2023-02-05T08:40:50;7.60;99.90
18229;DHT22;9239;50.932;3.142;2023-02-05T08:43:17;7.60;99.90
18229;DHT22;9239;50.932;3.142;2023-02-05T08:45:45;7.60;99.90
18229;DHT22;9239;50.932;3.142;2023-02-05T08:48:12;7.60;99.90
18229;DHT22;9239;50.932;3.142;2023-02-05T08:50:39;7.60;99.90
18229;DHT22;9239;50.932;3.142;2023-02-05T08:53:07;7.60;99.90
18229;DHT22;9239;50.932;3.142;2023-02-05T08:55:34;7.60;99.90
18229;DHT22;9239;50.932;3.142;2023-02-05T08:58:01;7.70;99.90
18229;DHT22;9239;50.932;3.142;2023-02-05T09:00:31;7.60;99.90
18229;DHT22;9239;50.932;3.142;2023-02-05T09:02:57;7.70;99.90
18229;DHT22;9239;50.932;3.142;2023-02-05T09:05:24;7.80;99.90
18229;DHT22;9239;50.932;3.142;2023-02-05T09:07:51;7.80;99.90
18229;DHT22;9239;50.932;3.142;2023-02-05T09:10:19;7.80;99.90
18229;DHT22;9239;50.932;3.142;2023-02-05T09:12:46;7.80;99.90
18229;DHT22;9239;50.932;3.142;2023-02-05T09:15:13;7.80;99.90
18229;DHT22;9239;50.932;3.142;2023-02-05T09:17:40;7.90;99.90
18229;DHT22;9239;50.932;3.142;2023-02-05T09:20:08;7.90;99.90
18229;DHT22;9239;50.932;3.142;2023-02-05T09:22:34;7.90;99.90
18229;DHT22;9239;50.932;3.142;2023-02-05T09:25:01;7.90;99.90
18229;DHT22;9239;50.932;3.142;2023-02-05T09:27:32;7.90;99.90
18229;DHT22;9239;50.932;3.142;2023-02-05T09:29:59;7.90;99.90
18229;DHT22;9239;50.932;3.142;2023-02-05T09:32:26;7.90;99.90
18229;DHT22;9239;50.932;3.142;2023-02-05T09:34:53;7.90;99.90
18229;DHT22;9239;50.932;3.142;2023-02-05T09:37:20;7.90;99.90
18229;DHT22;9239;50.932;3.142;2023-02-05T09:39:47;7.80;99.90
18229;DHT22;9239;50.932;3.142;2023-02-05T09:42:24;7.80;99.90
18229;DHT22;9239;50.932;3.142;2023-02-05T09:45:02;7.90;99.90
18229;DHT22;9239;50.932;3.142;2023-02-05T09:47:36;8.10;99.90
18229;DHT22;9239;50.932;3.142;2023-02-05T09:50:11;8.20;99.90
18229;DHT22;9239;50.932;3.142;2023-02-05T09:52:42;8.30;99.90
18229;DHT22;9239;50.932;3.142;2023-02-05T09:55:17;8.30;99.90
18229;DHT22;9239;50.932;3.142;2023-02-05T09:57:45;8.30;99.90
18229;DHT22;9239;50.932;3.142;2023-02-05T10:00:18;8.30;99.90
18229;DHT22;9239;50.932;3.142;2023-02-05T10:02:51;8.20;99.90
18229;DHT22;9239;50.932;3.142;2023-02-05T10:05:20;8.30;99.90
18229;DHT22;9239;50.932;3.142;2023-02-05T10:07:55;8.40;99.90
18229;DHT22;9239;50.932;3.142;2023-02-05T10:10:25;8.50;99.90
18229;DHT22;9239;50.932;3.142;2023-02-05T10:13:25;8.50;99.90
18229;DHT22;9239;50.932;3.142;2023-02-05T10:16:08;8.50;99.90
18229;DHT22;9239;50.932;3.142;2023-02-05T10:18:47;8.50;99.90
18229;DHT22;9239;50.932;3.142;2023-02-05T10:21:29;8.50;99.90
18229;DHT22;9239;50.932;3.142;2023-02-05T10:24:11;8.50;99.90
18229;DHT22;9239;50.932;3.142;2023-02-05T10:26:45;8.60;99.90
18229;DHT22;9239;50.932;3.142;2023-02-05T10:29:27;8.50;99.90
18229;DHT22;9239;50.932;3.142;2023-02-05T10:32:16;8.50;99.90
18229;DHT22;9239;50.932;3.142;2023-02-05T10:34:51;8.50;99.90
18229;DHT22;9239;50.932;3.142;2023-02-05T10:37:28;8.60;99.90
18229;DHT22;9239;50.932;3.142;2023-02-05T10:39:56;8.70;99.90
18229;DHT22;9239;50.932;3.142;2023-02-05T10:42:27;8.70;99.90
18229;DHT22;9239;50.932;3.142;2023-02-05T10:45:03;8.80;99.90
18229;DHT22;9239;50.932;3.142;2023-02-05T10:47:48;8.80;99.90
18229;DHT22;9239;50.932;3.142;2023-02-05T10:50:22;8.90;99.90
18229;DHT22;9239;50.932;3.142;2023-02-05T10:52:51;8.90;99.90
18229;DHT22;9239;50.932;3.142;2023-02-05T10:55:23;8.90;99.90
18229;DHT22;9239;50.932;3.142;2023-02-05T10:57:52;8.80;99.90
18229;DHT22;9239;50.932;3.142;2023-02-05T11:00:20;8.80;99.90
18229;DHT22;9239;50.932;3.142;2023-02-05T11:02:51;8.90;99.90
18229;DHT22;9239;50.932;3.142;2023-02-05T11:05:23;8.80;99.90
18229;DHT22;9239;50.932;3.142;2023-02-05T11:07:52;8.80;99.90
18229;DHT22;9239;50.932;3.142;2023-02-05T11:10:22;8.90;99.90
18229;DHT22;9239;50.932;3.142;2023-02-05T11:12:52;8.80;99.90
18229;DHT22;9239;50.932;3.142;2023-02-05T11:15:23;8.90;99.90
18229;DHT22;9239;50.932;3.142;2023-02-05T11:17:53;9.00;99.90
18229;DHT22;9239;50.932;3.142;2023-02-05T11:20:26;9.20;99.90
18229;DHT22;9239;50.932;3.142;2023-02-05T11:23:14;9.40;99.90
18229;DHT22;9239;50.932;3.142;2023-02-05T11:25:49;9.50;99.90
18229;DHT22;9239;50.932;3.142;2023-02-05T11:28:22;9.30;99.90
18229;DHT22;9239;50.932;3.142;2023-02-05T11:30:53;9.20;99.90
18229;DHT22;9239;50.932;3.142;2023-02-05T11:33:28;9.10;99.90
18229;DHT22;9239;50.932;3.142;2023-02-05T11:35:58;9.10;99.90
18229;DHT22;9239;50.932;3.142;2023-02-05T11:38:31;9.10;99.90
18229;DHT22;9239;50.932;3.142;2023-02-05T11:41:02;9.20;99.90
18229;DHT22;9239;50.932;3.142;2023-02-05T11:43:33;9.20;99.90
18229;DHT22;9239;50.932;3.142;2023-02-05T11:46:02;9.20;99.90
18229;DHT22;9239;50.932;3.142;2023-02-05T11:48:38;9.30;99.90
18229;DHT22;9239;50.932;3.142;2023-02-05T11:51:07;9.20;99.90
18229;DHT22;9239;50.932;3.142;2023-02-05T11:53:35;9.20;99.90
18229;DHT22;9239;50.932;3.142;2023-02-05T11:56:08;9.20;99.90
18229;DHT22;9239;50.932;3.142;2023-02-05T11:58:36;9.20;99.90
18229;DHT22;9239;50.932;3.142;2023-02-05T12:01:05;9.10;99.90
18229;DHT22;9239;50.932;3.142;2023-02-05T12:03:33;9.00;99.90
18229;DHT22;9239;50.932;3.142;2023-02-05T12:06:10;9.00;99.90
18229;DHT22;9239;50.932;3.142;2023-02-05T12:08:44;9.00;99.90
18229;DHT22;9239;50.932;3.142;2023-02-05T12:11:26;9.10;99.90
18229;DHT22;9239;50.932;3.142;2023-02-05T12:14:01;9.40;99.90
18229;DHT22;9239;50.932;3.142;2023-02-05T12:16:41;9.50;99.90
18229;DHT22;9239;50.932;3.142;2023-02-05T12:19:16;9.40;99.90
18229;DHT22;9239;50.932;3.142;2023-02-05T12:21:49;9.30;99.90
18229;DHT22;9239;50.932;3.142;2023-02-05T12:24:43;9.20;99.90
18229;DHT22;9239;50.932;3.142;2023-02-05T12:27:24;9.20;99.90
18229;DHT22;9239;50.932;3.142;2023-02-05T12:30:10;9.20;99.90
18229;DHT22;9239;50.932;3.142;2023-02-05T12:32:46;9.20;99.90
18229;DHT22;9239;50.932;3.142;2023-02-05T12:35:25;9.20;99.90
18229;DHT22;9239;50.932;3.142;2023-02-05T12:38:02;9.20;99.90
18229;DHT22;9239;50.932;3.142;2023-02-05T12:40:38;9.20;99.90
18229;DHT22;9239;50.932;3.142;2023-02-05T12:43:22;9.20;99.90
18229;DHT22;9239;50.932;3.142;2023-02-05T12:45:59;9.30;99.90
18229;DHT22;9239;50.932;3.142;2023-02-05T12:48:47;9.10;99.90
18229;DHT22;9239;50.932;3.142;2023-02-05T12:51:30;9.00;99.90
18229;DHT22;9239;50.932;3.142;2023-02-05T12:54:19;9.30;99.90
18229;DHT22;9239;50.932;3.142;2023-02-05T12:56:57;9.50;99.90
18229;DHT22;9239;50.932;3.142;2023-02-05T12:59:32;9.60;99.90
18229;DHT22;9239;50.932;3.142;2023-02-05T13:02:05;9.30;99.90
18229;DHT22;9239;50.932;3.142;2023-02-05T13:04:35;9.20;99.90
18229;DHT22;9239;50.932;3.142;2023-02-05T13:07:09;9.20;99.90
18229;DHT22;9239;50.932;3.142;2023-02-05T13:09:44;9.30;99.90
18229;DHT22;9239;50.932;3.142;2023-02-05T13:12:15;9.40;99.90
18229;DHT22;9239;50.932;3.142;2023-02-05T13:14:47;9.40;99.90
18229;DHT22;9239;50.932;3.142;2023-02-05T13:17:21;9.30;99.90
18229;DHT22;9239;50.932;3.142;2023-02-05T13:19:52;9.30;99.90
18229;DHT22;9239;50.932;3.142;2023-02-05T13:22:23;9.40;99.90
18229;DHT22;9239;50.932;3.142;2023-02-05T13:25:16;9.40;99.90
18229;DHT22;9239;50.932;3.142;2023-02-05T13:28:16;9.40;99.90
18229;DHT22;9239;50.932;3.142;2023-02-05T13:31:03;9.20;99.90
18229;DHT22;9239;50.932;3.142;2023-02-05T13:33:31;9.00;99.90
18229;DHT22;9239;50.932;3.142;2023-02-05T13:36:07;9.10;99.90
18229;DHT22;9239;50.932;3.142;2023-02-05T13:38:51;9.10;99.90
18229;DHT22;9239;50.932;3.142;2023-02-05T13:41:41;9.20;99.90
18229;DHT22;9239;50.932;3.142;2023-02-05T13:44:32;9.30;99.90
18229;DHT22;9239;50.932;3.142;2023-02-05T13:50:09;9.20;99.90
18229;DHT22;9239;50.932;3.142;2023-02-05T13:55:55;9.30;99.90
18229;DHT22;9239;50.932;3.142;2023-02-05T13:58:27;9.40;99.90
18229;DHT22;9239;50.932;3.142;2023-02-05T14:01:00;9.40;99.90
18229;DHT22;9239;50.932;3.142;2023-02-05T14:03:33;9.30;99.90
18229;DHT22;9239;50.932;3.142;2023-02-05T14:06:20;9.10;99.90
18229;DHT22;9239;50.932;3.142;2023-02-05T14:08:54;9.00;99.90
18229;DHT22;9239;50.932;3.142;2023-02-05T14:11:22;8.90;99.90
18229;DHT22;9239;50.932;3.142;2023-02-05T14:14:28;8.80;99.90
18229;DHT22;9239;50.932;3.142;2023-02-05T14:16:57;9.00;99.90
18229;DHT22;9239;50.932;3.142;2023-02-05T14:19:48;9.10;99.90
18229;DHT22;9239;50.932;3.142;2023-02-05T14:22:35;9.00;99.90
18229;DHT22;9239;50.932;3.142;2023-02-05T14:25:03;9.00;99.90
18229;DHT22;9239;50.932;3.142;2023-02-05T14:27:48;9.00;99.90
18229;DHT22;9239;50.932;3.142;2023-02-05T14:30:45;9.00;99.90
18229;DHT22;9239;50.932;3.142;2023-02-05T14:33:36;9.10;99.90
18229;DHT22;9239;50.932;3.142;2023-02-05T14:36:31;9.20;99.90
18229;DHT22;9239;50.932;3.142;2023-02-05T14:39:17;9.20;99.90
18229;DHT22;9239;50.932;3.142;2023-02-05T14:41:47;9.10;99.90
18229;DHT22;9239;50.932;3.142;2023-02-05T14:44:19;9.10;99.90
18229;DHT22;9239;50.932;3.142;2023-02-05T14:47:01;9.20;99.90
18229;DHT22;9239;50.932;3.142;2023-02-05T14:49:35;9.20;99.90
18229;DHT22;9239;50.932;3.142;2023-02-05T14:52:15;9.20;99.90
18229;DHT22;9239;50.932;3.142;2023-02-05T14:54:47;9.00;99.90
18229;DHT22;9239;50.932;3.142;2023-02-05T14:57:20;8.80;99.90
18229;DHT22;9239;50.932;3.142;2023-02-05T14:59:53;8.80;99.90
18229;DHT22;9239;50.932;3.142;2023-02-05T15:02:48;8.80;99.90
18229;DHT22;9239;50.932;3.142;2023-02-05T15:05:20;8.80;99.90
18229;DHT22;9239;50.932;3.142;2023-02-05T15:07:48;8.90;99.90
18229;DHT22;9239;50.932;3.142;2023-02-05T15:10:20;8.90;99.90
18229;DHT22;9239;50.932;3.142;2023-02-05T15:12:58;8.90;99.90
18229;DHT22;9239;50.932;3.142;2023-02-05T15:15:29;8.80;99.90
18229;DHT22;9239;50.932;3.142;2023-02-05T15:18:04;8.80;99.90
18229;DHT22;9239;50.932;3.142;2023-02-05T15:20:32;8.80;99.90
18229;DHT22;9239;50.932;3.142;2023-02-05T15:23:20;8.70;99.90
18229;DHT22;9239;50.932;3.142;2023-02-05T15:25:57;8.60;99.90
18229;DHT22;9239;50.932;3.142;2023-02-05T15:28:30;8.50;99.90
18229;DHT22;9239;50.932;3.142;2023-02-05T15:31:19;8.50;99.90
18229;DHT22;9239;50.932;3.142;2023-02-05T15:33:58;8.40;99.90
18229;DHT22;9239;50.932;3.142;2023-02-05T15:36:30;8.40;99.90
18229;DHT22;9239;50.932;3.142;2023-02-05T15:39:17;8.40;99.90
18229;DHT22;9239;50.932;3.142;2023-02-05T15:41:46;8.40;99.90
18229;DHT22;9239;50.932;3.142;2023-02-05T15:44:21;8.30;99.90
18229;DHT22;9239;50.932;3.142;2023-02-05T15:46:49;8.40;99.90
18229;DHT22;9239;50.932;3.142;2023-02-05T15:49:19;8.30;99.90
18229;DHT22;9239;50.932;3.142;2023-02-05T15:51:51;8.20;99.90
18229;DHT22;9239;50.932;3.142;2023-02-05T15:54:19;8.20;99.90
18229;DHT22;9239;50.932;3.142;2023-02-05T15:56:48;8.20;99.90
18229;DHT22;9239;50.932;3.142;2023-02-05T15:59:18;8.30;99.90
18229;DHT22;9239;50.932;3.142;2023-02-05T16:01:48;8.20;99.90
18229;DHT22;9239;50.932;3.142;2023-02-05T16:04:23;8.20;99.90
18229;DHT22;9239;50.932;3.142;2023-02-05T16:06:52;8.10;99.90
18229;DHT22;9239;50.932;3.142;2023-02-05T16:09:20;8.10;99.90
18229;DHT22;9239;50.932;3.142;2023-02-05T16:11:49;8.10;99.90
18229;DHT22;9239;50.932;3.142;2023-02-05T16:14:18;8.00;99.90
18229;DHT22;9239;50.932;3.142;2023-02-05T16:16:58;8.00;99.90
18229;DHT22;9239;50.932;3.142;2023-02-05T16:19:31;7.90;99.90
18229;DHT22;9239;50.932;3.142;2023-02-05T16:22:02;7.90;99.90
18229;DHT22;9239;50.932;3.142;2023-02-05T16:24:32;7.80;99.90
18229;DHT22;9239;50.932;3.142;2023-02-05T16:27:04;7.80;99.90
18229;DHT22;9239;50.932;3.142;2023-02-05T16:29:35;7.70;99.90
18229;DHT22;9239;50.932;3.142;2023-02-05T16:32:04;7.80;99.90
18229;DHT22;9239;50.932;3.142;2023-02-05T16:34:35;7.70;99.90
18229;DHT22;9239;50.932;3.142;2023-02-05T16:37:07;7.70;99.90
18229;DHT22;9239;50.932;3.142;2023-02-05T16:39:40;7.70;99.90